Time;durP1;ratioP1;P1;durP2;ratioP2;P2;SDS_P1;SDS_P2;PMS_P1;PMS_P2;Temp;Humidity;BMP_temperature;BMP_pressure;BME280_temperature;BME280_humidity;BME280_pressure;Samples;Min_cycle;Max_cycle;Signal;HPM_P1;HPM_P2
2023/03/03 00:00:57;;;;;;;92.47;59.22;;;3.70;99.90;;;;;;2036719;29;20039;-71
2023/03/03 00:01:57;;;;;;;97.00;63.85;;;3.80;99.90;;;;;;2037541;29;20039;-71
2023/03/03 00:03:02;;;;;;;102.05;65.15;;;3.70;99.90;;;;;;2037458;29;20139;-71
2023/03/03 00:04:02;;;;;;;111.47;71.65;;;3.70;99.90;;;;;;2035036;29;20103;-71
2023/03/03 00:05:03;;;;;;;112.60;71.68;;;3.70;99.90;;;;;;2037061;29;20024;-71
2023/03/03 00:06:04;;;;;;;108.72;70.45;;;3.70;99.90;;;;;;2036596;29;20608;-72
2023/03/03 00:07:05;;;;;;;103.90;68.25;;;3.70;99.90;;;;;;2037221;29;20075;-71
2023/03/03 00:08:05;;;;;;;103.28;70.38;;;3.60;99.90;;;;;;2037714;29;20023;-71
2023/03/03 00:09:06;;;;;;;105.40;68.43;;;3.60;99.90;;;;;;2034617;29;20163;-72
2023/03/03 00:10:07;;;;;;;103.10;67.75;;;3.70;99.90;;;;;;2036997;29;20075;-72
2023/03/03 00:11:08;;;;;;;95.65;64.85;;;3.60;99.90;;;;;;2028095;29;20028;-71
2023/03/03 00:12:30;;;;;;;88.32;60.45;;;3.60;99.90;;;;;;2027583;29;20048;-71
2023/03/03 00:13:31;;;;;;;94.20;63.50;;;3.60;99.90;;;;;;2036001;29;20531;-72
2023/03/03 00:14:32;;;;;;;93.57;62.67;;;3.60;99.90;;;;;;2036588;29;20376;-72
2023/03/03 00:15:34;;;;;;;99.85;65.22;;;3.60;99.90;;;;;;2036623;29;20167;-71
2023/03/03 00:16:37;;;;;;;98.30;64.55;;;3.60;99.90;;;;;;2038578;29;20087;-72
2023/03/03 00:17:38;;;;;;;91.07;62.50;;;3.50;99.90;;;;;;2037544;29;20384;-72
2023/03/03 00:18:42;;;;;;;97.70;65.35;;;3.50;99.90;;;;;;2036802;29;20179;-72
2023/03/03 00:19:46;;;;;;;99.18;65.82;;;3.50;99.90;;;;;;2037599;29;20024;-72
2023/03/03 00:20:59;;;;;;;96.50;64.22;;;3.60;99.90;;;;;;2035510;29;20043;-72
2023/03/03 00:22:00;;;;;;;94.45;64.25;;;3.60;99.90;;;;;;2037192;29;20051;-72
2023/03/03 00:23:23;;;;;;;97.10;64.50;;;3.60;99.90;;;;;;2038407;29;20058;-72
2023/03/03 00:24:36;;;;;;;94.10;62.40;;;3.60;99.90;;;;;;2039654;29;20465;-72
2023/03/03 00:25:37;;;;;;;97.70;64.57;;;3.60;99.90;;;;;;2035560;29;20044;-72
2023/03/03 00:26:39;;;;;;;92.38;63.22;;;3.60;99.90;;;;;;2035919;29;20266;-72
2023/03/03 00:27:40;;;;;;;95.55;62.88;;;3.60;99.90;;;;;;2038482;29;20067;-71
2023/03/03 00:28:46;;;;;;;99.45;63.65;;;3.60;99.90;;;;;;2036355;29;20596;-72
2023/03/03 00:29:53;;;;;;;98.60;63.83;;;3.60;99.90;;;;;;2036307;29;20528;-72
2023/03/03 00:30:57;;;;;;;94.68;63.05;;;3.60;99.90;;;;;;2038272;29;20032;-72
2023/03/03 00:32:20;;;;;;;96.47;61.33;;;3.60;99.90;;;;;;2037550;29;20562;-71
2023/03/03 00:33:41;;;;;;;93.35;61.58;;;3.60;99.90;;;;;;2036402;29;20034;-71
2023/03/03 00:34:43;;;;;;;96.90;60.75;;;3.60;99.90;;;;;;2036497;29;20570;-72
2023/03/03 00:35:43;;;;;;;93.82;61.67;;;3.60;99.90;;;;;;2037522;29;20075;-72
2023/03/03 00:36:45;;;;;;;92.95;61.85;;;3.60;99.90;;;;;;2037361;29;20130;-72
2023/03/03 00:37:46;;;;;;;94.43;60.85;;;3.60;99.90;;;;;;2036379;29;20032;-71
2023/03/03 00:38:47;;;;;;;91.53;58.13;;;3.60;99.90;;;;;;2037425;29;20068;-72
2023/03/03 00:39:48;;;;;;;91.32;58.65;;;3.60;99.90;;;;;;2036238;29;20036;-72
2023/03/03 00:40:49;;;;;;;87.20;56.30;;;3.60;99.90;;;;;;2036730;29;20136;-71
2023/03/03 00:41:50;;;;;;;88.97;57.67;;;3.60;99.90;;;;;;2034353;29;20034;-72
2023/03/03 00:42:57;;;;;;;93.55;60.00;;;3.60;99.90;;;;;;2035856;29;20114;-72
2023/03/03 00:43:58;;;;;;;98.07;61.03;;;3.60;99.90;;;;;;2037813;29;20283;-71
2023/03/03 00:44:59;;;;;;;89.30;57.85;;;3.60;99.90;;;;;;2036773;29;20028;-71
2023/03/03 00:46:00;;;;;;;96.88;59.05;;;3.60;99.90;;;;;;2034403;29;20028;-71
2023/03/03 00:47:26;;;;;;;102.70;60.80;;;3.60;99.90;;;;;;2038506;29;20836;-72
2023/03/03 00:48:29;;;;;;;100.50;60.58;;;3.60;99.90;;;;;;2036230;29;20087;-72
2023/03/03 00:49:30;;;;;;;104.00;63.05;;;3.60;99.90;;;;;;2035289;29;20028;-71
2023/03/03 00:50:33;;;;;;;102.28;65.13;;;3.60;99.90;;;;;;2037409;29;20030;-71
2023/03/03 00:51:34;;;;;;;104.53;62.08;;;3.60;99.90;;;;;;2037409;29;20028;-72
2023/03/03 00:52:38;;;;;;;106.88;63.08;;;3.60;99.90;;;;;;2036857;29;20186;-72
2023/03/03 00:53:38;;;;;;;104.43;63.58;;;3.60;99.90;;;;;;2037152;29;20034;-72
2023/03/03 00:54:39;;;;;;;103.60;61.75;;;3.50;99.90;;;;;;2036763;29;20035;-72
2023/03/03 00:55:39;;;;;;;100.30;59.55;;;3.50;99.90;;;;;;2028025;29;20459;-72
2023/03/03 00:56:40;;;;;;;99.72;61.72;;;3.60;99.90;;;;;;2029882;29;20016;-72
2023/03/03 00:57:40;;;;;;;105.05;63.70;;;3.50;99.90;;;;;;2037483;29;20634;-72
2023/03/03 00:58:43;;;;;;;101.53;64.18;;;3.60;99.90;;;;;;2036774;29;20484;-72
2023/03/03 00:59:43;;;;;;;109.85;64.18;;;3.60;99.90;;;;;;2037393;29;20024;-71
2023/03/03 01:00:44;;;;;;;112.45;66.93;;;3.60;99.90;;;;;;2036058;29;20598;-71
2023/03/03 01:01:44;;;;;;;111.35;65.90;;;3.60;99.90;;;;;;2038582;29;20028;-72
2023/03/03 01:02:45;;;;;;;107.00;64.40;;;3.60;99.90;;;;;;2036280;29;20039;-72
2023/03/03 01:03:45;;;;;;;106.95;62.47;;;3.60;99.90;;;;;;2036868;29;20036;-72
2023/03/03 01:04:49;;;;;;;107.93;64.00;;;3.60;99.90;;;;;;2036408;29;20118;-72
2023/03/03 01:05:51;;;;;;;106.88;65.40;;;3.60;99.90;;;;;;2037606;29;20900;-72
2023/03/03 01:06:52;;;;;;;107.53;64.50;;;3.60;99.90;;;;;;2036296;29;20039;-72
2023/03/03 01:07:52;;;;;;;108.43;64.50;;;3.60;99.90;;;;;;2036995;29;20532;-72
2023/03/03 01:08:56;;;;;;;108.50;65.70;;;3.60;99.90;;;;;;2035923;29;20056;-72
2023/03/03 01:09:56;;;;;;;107.72;65.22;;;3.60;99.90;;;;;;2044154;28;20114;-72
2023/03/03 01:11:02;;;;;;;111.07;67.47;;;3.60;99.90;;;;;;2044046;28;20575;-72
2023/03/03 01:12:03;;;;;;;117.30;69.72;;;3.60;99.90;;;;;;2036025;29;20055;-72
2023/03/03 01:13:04;;;;;;;110.75;67.68;;;3.60;99.90;;;;;;2035293;29;20031;-72
2023/03/03 01:14:06;;;;;;;114.63;70.43;;;3.60;99.90;;;;;;2036625;29;20433;-71
2023/03/03 01:15:09;;;;;;;112.55;69.15;;;3.60;99.90;;;;;;2035927;29;20027;-72
2023/03/03 01:16:09;;;;;;;107.57;66.78;;;3.60;99.90;;;;;;2035426;29;20024;-72
2023/03/03 01:17:10;;;;;;;97.28;60.83;;;3.60;99.90;;;;;;2037347;29;20028;-72
2023/03/03 01:18:11;;;;;;;101.65;62.40;;;3.60;99.90;;;;;;2036786;29;20036;-72
2023/03/03 01:19:12;;;;;;;87.75;54.47;;;3.60;99.90;;;;;;2037368;29;20039;-71
2023/03/03 01:20:13;;;;;;;78.47;50.70;;;3.60;99.90;;;;;;2036872;29;20559;-72
2023/03/03 01:21:14;;;;;;;75.45;49.83;;;3.60;99.90;;;;;;2034762;29;20027;-72
2023/03/03 01:22:14;;;;;;;79.20;51.58;;;3.60;99.90;;;;;;2036433;29;20030;-72
2023/03/03 01:23:15;;;;;;;77.93;52.30;;;3.60;99.90;;;;;;2028867;29;20390;-72
2023/03/03 01:24:15;;;;;;;76.88;51.85;;;3.60;99.90;;;;;;2028511;29;20431;-71
2023/03/03 01:25:16;;;;;;;84.82;53.65;;;3.60;99.90;;;;;;2028051;29;20035;-71
2023/03/03 01:26:16;;;;;;;84.45;53.92;;;3.60;99.90;;;;;;2028950;29;20097;-72
2023/03/03 01:27:17;;;;;;;87.68;54.58;;;3.60;99.90;;;;;;2038253;29;20020;-71
2023/03/03 01:28:18;;;;;;;82.72;54.85;;;3.60;99.90;;;;;;2038062;29;20695;-71
2023/03/03 01:29:18;;;;;;;82.38;54.03;;;3.60;99.90;;;;;;2036852;29;20020;-72
2023/03/03 01:30:19;;;;;;;85.57;54.08;;;3.60;99.90;;;;;;2036771;29;20452;-72
2023/03/03 01:31:19;;;;;;;81.35;54.13;;;3.60;99.90;;;;;;2037741;29;20021;-71
2023/03/03 01:32:20;;;;;;;78.65;51.92;;;3.60;99.90;;;;;;2036085;29;20038;-72
2023/03/03 01:33:21;;;;;;;78.30;51.92;;;3.60;99.90;;;;;;2036490;29;20099;-72
2023/03/03 01:34:21;;;;;;;82.47;52.20;;;3.60;99.90;;;;;;2037743;29;20020;-72
2023/03/03 01:35:22;;;;;;;80.63;52.00;;;3.50;99.90;;;;;;2036861;29;20050;-71
2023/03/03 01:36:24;;;;;;;74.95;50.03;;;3.50;99.90;;;;;;2036124;29;20027;-72
2023/03/03 01:37:25;;;;;;;76.55;49.10;;;3.50;99.90;;;;;;2036236;29;20092;-72
2023/03/03 01:38:26;;;;;;;79.53;50.88;;;3.60;99.90;;;;;;2036814;29;20028;-72
2023/03/03 01:39:26;;;;;;;75.05;49.30;;;3.60;99.90;;;;;;2045334;28;20027;-73
2023/03/03 01:40:29;;;;;;;71.05;47.10;;;3.60;99.90;;;;;;2040657;28;20114;-73
2023/03/03 01:41:33;;;;;;;63.35;42.80;;;3.60;99.90;;;;;;2037150;29;20054;-73
2023/03/03 01:42:34;;;;;;;56.95;39.45;;;3.60;99.90;;;;;;2027596;29;20469;-73
2023/03/03 01:43:44;;;;;;;58.17;39.97;;;3.70;99.90;;;;;;2028819;29;20028;-73
2023/03/03 01:44:45;;;;;;;55.20;37.83;;;3.70;99.90;;;;;;2037249;29;20074;-73
2023/03/03 01:45:48;;;;;;;58.60;38.63;;;3.70;99.90;;;;;;2026566;29;20040;-72
2023/03/03 01:46:58;;;;;;;57.85;38.83;;;3.70;99.90;;;;;;2026838;29;20036;-72
2023/03/03 01:48:30;;;;;;;60.67;39.67;;;3.70;99.90;;;;;;2035332;29;20040;-72
2023/03/03 01:49:40;;;;;;;56.80;39.70;;;3.60;99.90;;;;;;2024445;29;20067;-73
2023/03/03 01:51:21;;;;;;;63.03;42.00;;;3.70;99.90;;;;;;2035571;29;20024;-73
2023/03/03 01:52:45;;;;;;;66.05;43.28;;;3.60;99.90;;;;;;2018514;29;20068;-72
2023/03/03 01:53:50;;;;;;;70.30;44.80;;;3.60;99.90;;;;;;2032978;29;20057;-72
2023/03/03 01:54:55;;;;;;;69.00;42.47;;;3.60;99.90;;;;;;2037117;29;20036;-73
2023/03/03 01:55:56;;;;;;;68.53;44.33;;;3.60;99.90;;;;;;2033748;29;20020;-73
2023/03/03 01:57:01;;;;;;;73.53;44.72;;;3.60;99.90;;;;;;2036589;29;20047;-73
2023/03/03 01:58:11;;;;;;;75.78;47.13;;;3.60;99.90;;;;;;2036885;29;20195;-73
2023/03/03 01:59:20;;;;;;;76.55;47.95;;;3.60;99.90;;;;;;2036090;29;20374;-72
2023/03/03 02:00:20;;;;;;;81.72;49.78;;;3.60;99.90;;;;;;2035536;29;20015;-72
2023/03/03 02:01:24;;;;;;;82.07;51.38;;;3.60;99.90;;;;;;2036130;29;20028;-72
2023/03/03 02:02:27;;;;;;;83.25;51.50;;;3.60;99.90;;;;;;2037063;29;20040;-72
2023/03/03 02:03:28;;;;;;;86.97;51.55;;;3.60;99.90;;;;;;2036616;29;20019;-72
2023/03/03 02:04:29;;;;;;;85.78;50.65;;;3.60;99.90;;;;;;2035783;29;20031;-72
2023/03/03 02:05:30;;;;;;;84.13;52.72;;;3.60;99.90;;;;;;2037203;29;20028;-72
2023/03/03 02:06:35;;;;;;;85.93;50.47;;;3.60;99.90;;;;;;2035264;29;20039;-72
2023/03/03 02:07:37;;;;;;;83.68;48.45;;;3.60;99.90;;;;;;2037976;29;20028;-72
2023/03/03 02:09:03;;;;;;;82.28;49.22;;;3.60;99.90;;;;;;2037913;29;20044;-72
2023/03/03 02:10:09;;;;;;;78.07;47.85;;;3.50;99.90;;;;;;2036074;29;20784;-72
2023/03/03 02:11:11;;;;;;;79.43;47.53;;;3.50;99.90;;;;;;2034475;29;20032;-73
2023/03/03 02:12:15;;;;;;;76.45;46.10;;;3.50;99.90;;;;;;2037161;29;20106;-73
2023/03/03 02:13:16;;;;;;;77.95;46.38;;;3.50;99.90;;;;;;2036703;29;20773;-73
2023/03/03 02:14:18;;;;;;;78.88;46.47;;;3.50;99.90;;;;;;2035834;29;20039;-72
2023/03/03 02:15:24;;;;;;;80.65;48.33;;;3.50;99.90;;;;;;2035807;29;20067;-72
2023/03/03 02:16:25;;;;;;;79.63;46.63;;;3.50;99.90;;;;;;2036869;29;20024;-72
2023/03/03 02:17:25;;;;;;;78.47;47.60;;;3.50;99.90;;;;;;2038523;29;20024;-73
2023/03/03 02:18:26;;;;;;;73.57;46.08;;;3.50;99.90;;;;;;2035928;29;20031;-73
2023/03/03 02:19:51;;;;;;;71.90;44.92;;;3.50;99.90;;;;;;2036355;29;20063;-72
2023/03/03 02:21:09;;;;;;;73.47;46.13;;;3.50;99.90;;;;;;2035931;29;20491;-72
2023/03/03 02:22:12;;;;;;;80.93;47.67;;;3.50;99.90;;;;;;2035954;29;20031;-72
2023/03/03 02:23:17;;;;;;;85.35;51.08;;;3.50;99.90;;;;;;2038060;29;20035;-73
2023/03/03 02:24:33;;;;;;;93.03;55.85;;;3.50;99.90;;;;;;2035461;29;20031;-72
2023/03/03 02:25:54;;;;;;;102.80;60.13;;;3.50;99.90;;;;;;2035445;29;20028;-72
2023/03/03 02:26:55;;;;;;;102.78;60.63;;;3.50;99.90;;;;;;2013714;29;20065;-72
2023/03/03 02:27:56;;;;;;;107.75;65.70;;;3.50;99.90;;;;;;2032161;29;20039;-73
2023/03/03 02:28:57;;;;;;;110.22;63.63;;;3.50;99.90;;;;;;2035454;29;20163;-72
2023/03/03 02:30:06;;;;;;;100.65;60.78;;;3.50;99.90;;;;;;2034904;29;20872;-73
2023/03/03 02:31:12;;;;;;;106.07;62.00;;;3.50;99.90;;;;;;2034019;29;20024;-73
2023/03/03 02:32:12;;;;;;;96.05;55.58;;;3.40;99.90;;;;;;2034445;29;20059;-73
2023/03/03 02:33:13;;;;;;;95.68;57.35;;;3.40;99.90;;;;;;2034098;29;20031;-73
2023/03/03 02:34:14;;;;;;;83.05;49.85;;;3.50;99.90;;;;;;2036406;29;20587;-73
2023/03/03 02:35:30;;;;;;;95.30;52.15;;;3.50;99.90;;;;;;2026702;29;20020;-73
2023/03/03 02:36:36;;;;;;;86.30;50.55;;;3.50;99.90;;;;;;2029969;29;20025;-72
2023/03/03 02:37:36;;;;;;;82.40;50.40;;;3.50;99.90;;;;;;2036320;29;20520;-72
2023/03/03 02:39:08;;;;;;;78.07;47.47;;;3.50;99.90;;;;;;2035648;29;21684;-73
2023/03/03 02:40:11;;;;;;;78.63;48.53;;;3.50;99.90;;;;;;2035781;29;20123;-72
2023/03/03 02:41:33;;;;;;;78.97;49.05;;;3.50;99.90;;;;;;2036072;29;20030;-72
2023/03/03 02:42:34;;;;;;;78.57;46.22;;;3.50;99.90;;;;;;2036581;29;20016;-72
2023/03/03 02:43:56;;;;;;;80.88;47.85;;;3.50;99.90;;;;;;2035143;29;20084;-73
2023/03/03 02:44:57;;;;;;;82.00;47.83;;;3.50;99.90;;;;;;2035405;29;20032;-73
2023/03/03 02:45:57;;;;;;;80.05;48.42;;;3.50;99.90;;;;;;2035599;29;20030;-73
2023/03/03 02:46:58;;;;;;;87.82;51.05;;;3.50;99.90;;;;;;2036853;29;20047;-73
2023/03/03 02:47:59;;;;;;;90.35;52.63;;;3.50;99.90;;;;;;2037266;29;20039;-72
2023/03/03 02:49:00;;;;;;;81.97;48.22;;;3.40;99.90;;;;;;2034820;29;20036;-73
2023/03/03 02:50:00;;;;;;;78.43;46.80;;;3.40;99.90;;;;;;2034850;29;20023;-72
2023/03/03 02:51:01;;;;;;;73.00;44.63;;;3.40;99.90;;;;;;2036356;29;20028;-73
2023/03/03 02:52:05;;;;;;;76.75;45.53;;;3.40;99.90;;;;;;2034053;29;20440;-73
2023/03/03 02:53:06;;;;;;;77.47;46.05;;;3.40;99.90;;;;;;2035106;29;20121;-73
2023/03/03 02:54:08;;;;;;;73.72;46.03;;;3.40;99.90;;;;;;2036551;29;20515;-73
2023/03/03 02:55:09;;;;;;;69.10;43.72;;;3.40;99.90;;;;;;2035333;29;20040;-73
2023/03/03 02:56:10;;;;;;;71.00;43.38;;;3.40;99.90;;;;;;2035034;29;20071;-73
2023/03/03 02:57:10;;;;;;;73.03;44.33;;;3.30;99.90;;;;;;2036410;29;20031;-73
2023/03/03 02:58:11;;;;;;;75.80;46.50;;;3.30;99.90;;;;;;2043898;28;20142;-73
2023/03/03 02:59:12;;;;;;;73.18;44.35;;;3.30;99.90;;;;;;2042711;28;20027;-73
2023/03/03 03:00:13;;;;;;;75.13;43.80;;;3.30;99.90;;;;;;2035129;29;20115;-73
2023/03/03 03:01:14;;;;;;;71.28;43.58;;;3.30;99.90;;;;;;2035411;29;20129;-73
2023/03/03 03:02:14;;;;;;;74.75;45.45;;;3.40;99.90;;;;;;2036220;29;20428;-73
2023/03/03 03:03:15;;;;;;;77.55;46.00;;;3.30;99.90;;;;;;2035380;29;20027;-72
2023/03/03 03:04:18;;;;;;;71.25;43.05;;;3.30;99.90;;;;;;2035630;29;20139;-73
2023/03/03 03:05:19;;;;;;;70.28;44.03;;;3.40;99.90;;;;;;2027150;29;20071;-73
2023/03/03 03:06:19;;;;;;;76.47;43.28;;;3.30;99.90;;;;;;2025683;29;20031;-73
2023/03/03 03:07:20;;;;;;;68.78;42.67;;;3.30;99.90;;;;;;2035231;29;20031;-73
2023/03/03 03:08:21;;;;;;;68.07;42.03;;;3.40;99.90;;;;;;2034003;29;20020;-73
2023/03/03 03:09:23;;;;;;;70.93;42.25;;;3.30;99.90;;;;;;2035027;29;20036;-73
2023/03/03 03:10:24;;;;;;;76.43;44.20;;;3.30;99.90;;;;;;2035506;29;20027;-73
2023/03/03 03:11:25;;;;;;;74.35;42.85;;;3.30;99.90;;;;;;2036199;29;20024;-72
2023/03/03 03:12:25;;;;;;;72.50;43.90;;;3.30;99.90;;;;;;2037354;29;20031;-73
2023/03/03 03:13:26;;;;;;;73.10;43.47;;;3.30;99.90;;;;;;2037589;29;20035;-73
2023/03/03 03:14:27;;;;;;;77.82;45.20;;;3.30;99.90;;;;;;2027395;29;20556;-73
2023/03/03 03:15:27;;;;;;;83.97;47.55;;;3.30;99.90;;;;;;2026520;29;20033;-73
2023/03/03 03:16:28;;;;;;;81.22;46.22;;;3.30;99.90;;;;;;2034438;29;20055;-73
2023/03/03 03:17:28;;;;;;;77.90;45.70;;;3.30;99.90;;;;;;2035601;29;20115;-73
2023/03/03 03:18:29;;;;;;;83.45;45.65;;;3.30;99.90;;;;;;2034285;29;20403;-72
2023/03/03 03:19:29;;;;;;;78.05;45.75;;;3.30;99.90;;;;;;2035230;29;20070;-72
2023/03/03 03:20:30;;;;;;;74.38;44.88;;;3.30;99.90;;;;;;2034157;29;20020;-73
2023/03/03 03:21:31;;;;;;;80.68;45.20;;;3.30;99.90;;;;;;2036518;29;20110;-72
2023/03/03 03:22:32;;;;;;;77.70;44.45;;;3.30;99.90;;;;;;2038320;29;20034;-72
2023/03/03 03:23:33;;;;;;;79.28;47.10;;;3.30;99.90;;;;;;2039557;29;20032;-73
2023/03/03 03:24:34;;;;;;;82.10;46.92;;;3.30;99.90;;;;;;2044515;28;20031;-73
2023/03/03 03:25:41;;;;;;;81.80;48.00;;;3.30;99.90;;;;;;2036352;29;20026;-73
2023/03/03 03:26:41;;;;;;;82.65;48.75;;;3.30;99.90;;;;;;2031294;29;20029;-73
2023/03/03 03:27:42;;;;;;;84.95;47.63;;;3.20;99.90;;;;;;2038646;29;20054;-72
2023/03/03 03:28:42;;;;;;;82.85;46.20;;;3.20;99.90;;;;;;2030426;29;20035;-73
2023/03/03 03:29:43;;;;;;;84.43;47.72;;;3.20;99.90;;;;;;2030582;29;20032;-72
2023/03/03 03:30:44;;;;;;;81.07;48.65;;;3.20;99.90;;;;;;2038170;29;20032;-73
2023/03/03 03:31:45;;;;;;;84.18;47.10;;;3.20;99.90;;;;;;2040466;29;20034;-73
2023/03/03 03:32:46;;;;;;;86.00;48.15;;;3.20;99.90;;;;;;2038209;29;20039;-72
2023/03/03 03:33:47;;;;;;;78.32;46.47;;;3.20;99.90;;;;;;2037280;29;20387;-73
2023/03/03 03:34:47;;;;;;;78.25;46.42;;;3.20;99.90;;;;;;2037881;29;20070;-73
2023/03/03 03:35:49;;;;;;;73.50;45.90;;;3.20;99.90;;;;;;2035182;29;20035;-73
2023/03/03 03:36:49;;;;;;;81.45;45.90;;;3.20;99.90;;;;;;2037806;29;20566;-73
2023/03/03 03:37:50;;;;;;;77.57;48.22;;;3.20;99.90;;;;;;2045560;28;20430;-72
2023/03/03 03:38:51;;;;;;;79.88;47.15;;;3.30;99.90;;;;;;2042595;28;20082;-73
2023/03/03 03:39:52;;;;;;;71.95;44.60;;;3.20;99.90;;;;;;2037646;29;20031;-73
2023/03/03 03:40:53;;;;;;;76.63;46.03;;;3.30;99.90;;;;;;2036781;29;20068;-73
2023/03/03 03:41:54;;;;;;;62.67;40.47;;;3.30;99.90;;;;;;2038120;29;20039;-73
2023/03/03 03:42:55;;;;;;;63.15;39.28;;;3.30;99.90;;;;;;2038912;29;20082;-73
2023/03/03 03:43:55;;;;;;;55.67;37.25;;;3.30;99.90;;;;;;2036789;29;20431;-73
2023/03/03 03:44:56;;;;;;;55.97;36.17;;;3.30;99.90;;;;;;2037842;29;20023;-73
2023/03/03 03:45:56;;;;;;;55.20;36.30;;;3.30;99.90;;;;;;2036861;29;20070;-73
2023/03/03 03:46:57;;;;;;;55.80;35.75;;;3.40;99.90;;;;;;2037061;29;20030;-73
2023/03/03 03:47:57;;;;;;;55.53;36.38;;;3.40;99.90;;;;;;2037877;29;20427;-73
2023/03/03 03:48:58;;;;;;;57.78;38.05;;;3.40;99.90;;;;;;2036259;29;20123;-72
2023/03/03 03:49:58;;;;;;;60.85;38.78;;;3.40;99.90;;;;;;2034400;29;20058;-73
2023/03/03 03:50:59;;;;;;;58.10;36.92;;;3.40;99.90;;;;;;2036330;29;20028;-73
2023/03/03 03:51:59;;;;;;;54.70;36.15;;;3.40;99.90;;;;;;2037806;29;20024;-73
2023/03/03 03:53:00;;;;;;;53.60;36.40;;;3.40;99.90;;;;;;2036480;29;20039;-73
2023/03/03 03:54:01;;;;;;;54.55;35.50;;;3.40;99.90;;;;;;2037359;29;20378;-72
2023/03/03 03:55:01;;;;;;;55.53;36.03;;;3.40;99.90;;;;;;2036553;29;20032;-73
2023/03/03 03:56:02;;;;;;;54.78;35.10;;;3.40;99.90;;;;;;2038368;29;20597;-73
2023/03/03 03:57:03;;;;;;;48.55;34.10;;;3.40;99.90;;;;;;2036808;29;20028;-72
2023/03/03 03:58:03;;;;;;;52.03;34.10;;;3.40;99.90;;;;;;2036385;29;20086;-72
2023/03/03 03:59:06;;;;;;;47.38;32.88;;;3.40;99.90;;;;;;2036843;29;20058;-73
2023/03/03 04:00:08;;;;;;;47.60;33.33;;;3.40;99.90;;;;;;2036609;29;20051;-73
2023/03/03 04:01:09;;;;;;;46.55;32.38;;;3.40;99.90;;;;;;2037937;29;20027;-73
2023/03/03 04:02:09;;;;;;;47.92;31.25;;;3.30;99.90;;;;;;2037894;29;20028;-72
2023/03/03 04:03:10;;;;;;;48.78;32.50;;;3.40;99.90;;;;;;2035788;29;20027;-73
2023/03/03 04:04:11;;;;;;;46.28;32.83;;;3.30;99.90;;;;;;2036548;29;20027;-73
2023/03/03 04:05:12;;;;;;;46.13;31.60;;;3.30;99.90;;;;;;2037393;29;20040;-73
2023/03/03 04:06:12;;;;;;;47.72;32.75;;;3.30;99.90;;;;;;2030213;29;20554;-73
2023/03/03 04:07:13;;;;;;;46.63;31.30;;;3.30;99.90;;;;;;2031296;29;20067;-73
2023/03/03 04:08:13;;;;;;;47.47;30.92;;;3.30;99.90;;;;;;2028769;29;20035;-73
2023/03/03 04:09:14;;;;;;;47.25;32.20;;;3.30;99.90;;;;;;2028674;29;20067;-73
2023/03/03 04:10:16;;;;;;;48.85;32.78;;;3.30;99.90;;;;;;2038161;29;20082;-73
2023/03/03 04:11:17;;;;;;;48.63;31.85;;;3.30;99.90;;;;;;2036965;29;20022;-73
2023/03/03 04:12:17;;;;;;;51.90;34.40;;;3.30;99.90;;;;;;2037032;29;20039;-73
2023/03/03 04:13:18;;;;;;;51.83;33.55;;;3.30;99.90;;;;;;2036871;29;20028;-73
2023/03/03 04:14:18;;;;;;;52.65;35.72;;;3.30;99.90;;;;;;2036682;29;20134;-73
2023/03/03 04:15:19;;;;;;;55.42;35.65;;;3.30;99.90;;;;;;2038843;29;20026;-73
2023/03/03 04:16:19;;;;;;;54.42;34.70;;;3.30;99.90;;;;;;2037375;29;20028;-73
2023/03/03 04:17:23;;;;;;;54.00;35.75;;;3.30;99.90;;;;;;2037493;29;20019;-73
2023/03/03 04:18:24;;;;;;;53.38;34.72;;;3.30;99.90;;;;;;2037840;29;20477;-73
2023/03/03 04:19:24;;;;;;;56.03;34.53;;;3.30;99.90;;;;;;2037320;29;20046;-73
2023/03/03 04:20:25;;;;;;;47.50;32.17;;;3.30;99.90;;;;;;2036685;29;20078;-73
2023/03/03 04:21:26;;;;;;;43.58;30.98;;;3.20;99.90;;;;;;2037451;29;20032;-73
2023/03/03 04:22:28;;;;;;;47.55;31.77;;;3.20;99.90;;;;;;2038245;29;20026;-73
2023/03/03 04:23:29;;;;;;;49.10;32.67;;;3.20;99.90;;;;;;2037496;29;20027;-73
2023/03/03 04:24:30;;;;;;;47.22;31.13;;;3.20;99.90;;;;;;2037068;29;20024;-73
2023/03/03 04:25:30;;;;;;;55.42;34.22;;;3.20;99.90;;;;;;2027546;29;20395;-73
2023/03/03 04:26:31;;;;;;;51.05;32.97;;;3.20;99.90;;;;;;2028505;29;20074;-73
2023/03/03 04:27:33;;;;;;;54.25;35.40;;;3.20;99.90;;;;;;2044119;28;20758;-73
2023/03/03 04:28:33;;;;;;;55.95;33.75;;;3.20;99.90;;;;;;2043982;28;20415;-72
2023/03/03 04:29:34;;;;;;;55.95;35.00;;;3.20;99.90;;;;;;2036454;29;20099;-72
2023/03/03 04:30:35;;;;;;;53.80;33.50;;;3.10;99.90;;;;;;2035387;29;20475;-72
2023/03/03 04:31:35;;;;;;;53.65;34.53;;;3.20;99.90;;;;;;2036972;29;20026;-73
2023/03/03 04:32:36;;;;;;;51.08;33.08;;;3.10;99.90;;;;;;2034595;29;20028;-73
2023/03/03 04:33:37;;;;;;;55.33;36.22;;;3.10;99.90;;;;;;2036017;29;20039;-73
2023/03/03 04:34:37;;;;;;;51.17;34.70;;;3.10;99.90;;;;;;2035777;29;20581;-73
2023/03/03 04:35:38;;;;;;;52.45;33.67;;;3.10;99.90;;;;;;2038183;29;20597;-73
2023/03/03 04:36:38;;;;;;;53.22;34.72;;;3.10;99.90;;;;;;2036640;29;20026;-73
2023/03/03 04:37:39;;;;;;;51.20;34.10;;;3.10;99.90;;;;;;2037245;29;20035;-73
2023/03/03 04:38:39;;;;;;;56.13;35.25;;;3.10;99.90;;;;;;2036631;29;20040;-73
2023/03/03 04:39:40;;;;;;;57.05;35.78;;;3.10;99.90;;;;;;2028881;29;20020;-72
2023/03/03 04:40:41;;;;;;;55.15;34.45;;;3.10;99.90;;;;;;2028839;29;20031;-73
2023/03/03 04:41:41;;;;;;;56.22;36.40;;;3.10;99.90;;;;;;2038088;29;20086;-72
2023/03/03 04:42:42;;;;;;;51.47;33.83;;;3.10;99.90;;;;;;2035695;29;20060;-73
2023/03/03 04:43:42;;;;;;;50.78;32.75;;;3.10;99.90;;;;;;2036876;29;20031;-73
2023/03/03 04:44:43;;;;;;;51.28;34.10;;;3.10;99.90;;;;;;2036750;29;20135;-73
2023/03/03 04:45:44;;;;;;;52.78;33.97;;;3.10;99.90;;;;;;2029813;29;20120;-73
2023/03/03 04:46:44;;;;;;;53.45;35.03;;;3.10;99.90;;;;;;2027491;29;20043;-73
2023/03/03 04:47:45;;;;;;;54.08;34.58;;;3.00;99.90;;;;;;2043372;28;20566;-73
2023/03/03 04:48:45;;;;;;;51.22;33.90;;;3.00;99.90;;;;;;2044279;28;20031;-73
2023/03/03 04:49:46;;;;;;;49.60;33.50;;;3.00;99.90;;;;;;2036499;29;20459;-73
2023/03/03 04:50:46;;;;;;;51.22;33.03;;;3.00;99.90;;;;;;2036579;29;20027;-73
2023/03/03 04:51:47;;;;;;;49.08;32.97;;;3.00;99.90;;;;;;2037338;29;20651;-73
2023/03/03 04:52:47;;;;;;;46.40;31.42;;;3.10;99.90;;;;;;2036058;29;20039;-73
2023/03/03 04:53:48;;;;;;;47.45;32.97;;;3.10;99.90;;;;;;2037674;29;20391;-73
2023/03/03 04:54:48;;;;;;;56.58;36.83;;;3.10;99.90;;;;;;2036359;29;20114;-72
2023/03/03 04:55:51;;;;;;;62.50;39.50;;;3.10;99.90;;;;;;2027646;29;20095;-73
2023/03/03 04:56:51;;;;;;;58.35;38.97;;;3.10;99.90;;;;;;2027787;29;20020;-73
2023/03/03 04:57:52;;;;;;;61.30;38.55;;;3.10;99.90;;;;;;2037953;29;20082;-73
2023/03/03 04:58:52;;;;;;;54.40;36.42;;;3.00;99.90;;;;;;2036581;29;20032;-73
2023/03/03 04:59:53;;;;;;;51.90;35.90;;;3.10;99.90;;;;;;2036953;29;20032;-73
2023/03/03 05:00:55;;;;;;;54.58;36.38;;;3.00;99.90;;;;;;2038342;29;20411;-73
2023/03/03 05:01:56;;;;;;;60.03;37.67;;;3.10;99.90;;;;;;2037350;29;20026;-73
2023/03/03 05:02:57;;;;;;;54.28;36.95;;;3.10;99.90;;;;;;2036238;29;20028;-72
2023/03/03 05:03:57;;;;;;;56.75;37.78;;;3.10;99.90;;;;;;2037725;29;20501;-73
2023/03/03 05:04:58;;;;;;;58.67;37.55;;;3.10;99.90;;;;;;2037437;29;20067;-73
2023/03/03 05:05:58;;;;;;;51.95;35.03;;;3.10;99.90;;;;;;2036322;29;20039;-72
2023/03/03 05:06:59;;;;;;;54.88;36.03;;;3.10;99.90;;;;;;2035400;29;20825;-72
2023/03/03 05:07:59;;;;;;;54.17;36.15;;;3.10;99.90;;;;;;2036048;29;20027;-72
2023/03/03 05:09:00;;;;;;;55.67;36.55;;;3.10;99.90;;;;;;2027736;29;20176;-72
2023/03/03 05:10:01;;;;;;;51.40;34.10;;;3.10;99.90;;;;;;2027877;29;20020;-73
2023/03/03 05:11:01;;;;;;;52.95;35.08;;;3.10;99.90;;;;;;2036963;29;20119;-73
2023/03/03 05:12:02;;;;;;;46.80;32.00;;;3.10;99.90;;;;;;2035826;29;20016;-73
2023/03/03 05:13:03;;;;;;;47.15;31.77;;;3.10;99.90;;;;;;2037596;29;20139;-73
2023/03/03 05:14:04;;;;;;;53.42;33.95;;;3.10;99.90;;;;;;2036968;29;20031;-73
2023/03/03 05:15:05;;;;;;;50.00;32.65;;;3.10;99.90;;;;;;2035750;29;20039;-72
2023/03/03 05:16:06;;;;;;;51.35;33.47;;;3.10;99.90;;;;;;2037896;29;20023;-72
2023/03/03 05:17:06;;;;;;;47.67;32.78;;;3.10;99.90;;;;;;2037597;29;20023;-73
2023/03/03 05:18:07;;;;;;;53.88;35.88;;;3.10;99.90;;;;;;2036410;29;20027;-73
2023/03/03 05:19:08;;;;;;;55.95;36.13;;;3.10;99.90;;;;;;2037374;29;20135;-73
2023/03/03 05:20:13;;;;;;;56.45;35.92;;;3.10;99.90;;;;;;2035784;29;20034;-73
2023/03/03 05:21:13;;;;;;;53.53;34.58;;;3.00;99.90;;;;;;2038163;29;20031;-73
2023/03/03 05:22:14;;;;;;;54.10;35.70;;;3.10;99.90;;;;;;2037214;29;20554;-73